Cougar, WA

3:36 AM PDT on September 21, 2014 (GMT -0700)
West Yale Valley | Change Station
CLOSE
Current Station
Personal Weather Station
Location: Ariel, WA
Elevation: 455 ft
Nearby Weather Stations

Elev 455 ft 46.00 °N, 122.40 °W | Updated 11 minutes ago

Clear
Clear
80.9 °F
Feels Like 80 °F
N
4.0
Wind Variable Wind from ENE
Gusts 14.0 mph

Today
High -- | Low -- °F
--% Chance of Precip.
Yesterday
High -- | Low -- °F
Precip. -- in
6:54 AM 7:08 PM
Waning Crescent, 7% visible
Pressure 29.88 in
Visibility 10.0 miles
Clouds Clear
Heat Index 80 °F
Dew Point 49 °F
Humidity 33%
Rainfall 0.00 in
Snow Depth 0 in , 0 in , 0 in
UV 0 out of 12
Pollen 2.70 out of 12
Air Quality Not available.
Flu Activity Not available.
METAR KKLS 211015Z AUTO 00000KT 10SM CLR 15/12 A2988 RMK AO1

More Conditions Fewer Conditions

Pressure 29.88 in
Visibility 10.0 miles
Clouds Clear
Heat Index 80 °F
Dew Point 49 °F
Humidity 33%
Rainfall 0.00 in
Snow Depth 0 in , 0 in , 0 in
UV 0 out of 12
Pollen 2.70 out of 12
Air Quality Not available.
Flu Activity Not available.
METAR KKLS 211015Z AUTO 00000KT 10SM CLR 15/12 A2988 RMK AO1

More Conditions Fewer Conditions

10-Day Weather Forecast

Almanac

Astronomy

Sep. 21, 2014 Rise Set
Actual Time 6:54 AM PDT 7:08 PM PDT
Civil Twilight 6:24 AM PDT 7:38 PM PDT
Nautical Twilight 5:49 AM PDT 8:13 PM PDT
Astronomical Twilight 5:12 AM PDT 8:49 PM PDT
Moon 4:26 AM PDT 5:51 PM PDT
Length of Visible Light 13h 13m
Length of Day
12h 13m
Tomorrow will be 3m 15s shorter.
Waning Crescent, 7% of the Moon is Illuminated
Today
Waning Crescent
Sep 24
New
Oct 1
First Quarter
Oct 8
Full
Oct 15
Last Quarter

Today's Extremes

State Highs State Lows

Community

WunderPhotos

Upload Photos

1,755,108 photos uploaded!

Nearby

Snow Depth

Station Depth Elevation
Morse Lake 0 in 5400 ft
Fish Lake 0 in 3371 ft
Bunchgrass Meadow 0 in 5000 ft
Alpine Meadows 0 in 3500 ft
Sourdough Gulch 1 in 4000 ft

Earthquake Activity

City Distance Mag. Time & Date
No recent earthquake activity has been reported nearby.
Minimum magnitude displayed is 2.5.

Coastal Water Temperatures

Place Temperature
No Stations Reporting

Nearby Weather Stations